Backworth, United Kingdom
Current Conditions -  °F | °C
As of 8:50 AM on Saturday 22 Nov 2014 (Local Time) from EGNT Reporting Station
Broken Clouds Broken Clouds  
Wind Chill:   Ceiling: 500
Heat Index:   Visibility: 4mi
Dew Point:   Wind: 3mph
Humidity: 93%   Direction: NA
Pressure: 29.74"   Gusts: NA
Location:  55.04°N, 1.53°W
Report Text: EGNT 220850Z VRB03KT 6000 BKN005 09/08 Q1007
Loading
Personal Weather Stations






























Interactive Weather Map New forecast layout! Learn more

10-Day Weather Forecast

Advertisements
Track Severe Weather on mobile